Time;durP1;ratioP1;P1;durP2;ratioP2;P2;SDS_P1;SDS_P2;PMS_P1;PMS_P2;Temp;Humidity;BMP_temperature;BMP_pressure;BME280_temperature;BME280_humidity;BME280_pressure;Samples;Min_cycle;Max_cycle;Signal;HPM_P1;HPM_P2
2023/10/13 20:58:26;;;;;;;3.13;1.27;;;;;;;17.25;100.00;100592.25;5089246;27;20547;-75
2023/10/13 21:00:54;;;;;;;3.13;1.08;;;;;;;17.76;100.00;100598.16;5089204;28;20198;-74
2023/10/13 21:03:21;;;;;;;0.90;0.88;;;;;;;17.81;100.00;100612.09;5088942;28;20198;-74
2023/10/13 21:05:48;;;;;;;1.08;0.95;;;;;;;17.89;100.00;100612.94;5088803;28;20202;-75
2023/10/13 21:08:15;;;;;;;0.70;0.70;;;;;;;17.83;100.00;100616.47;5053513;28;20225;-75
2023/10/13 21:14:06;;;;;;;1.25;1.15;;;;;;;17.65;100.00;100615.69;5088966;27;20553;-71
2023/10/13 21:16:33;;;;;;;4.60;1.17;;;;;;;17.59;100.00;100613.09;5053621;28;20198;-72
2023/10/13 21:19:00;;;;;;;2.80;1.08;;;;;;;17.58;100.00;100601.75;5053456;28;20190;-69
2023/10/13 21:21:30;;;;;;;3.55;1.08;;;;;;;17.58;100.00;100598.25;5088908;28;20676;-70
2023/10/13 21:36:25;;;;;;;2.72;1.02;;;;;;;17.32;100.00;100598.34;5088965;27;20545;-75
2023/10/13 21:38:54;;;;;;;2.55;1.17;;;;;;;17.50;100.00;100590.38;5088934;28;20656;-75
2023/10/13 21:41:23;;;;;;;1.15;1.02;;;;;;;17.56;100.00;100589.47;5088955;28;20681;-75
2023/10/13 21:43:53;;;;;;;1.27;1.10;;;;;;;17.62;100.00;100597.38;5088904;28;20210;-75
2023/10/13 21:46:21;;;;;;;2.38;1.38;;;;;;;17.73;100.00;100585.03;5088895;28;20322;-75
2023/10/13 21:48:48;;;;;;;2.05;1.15;;;;;;;17.59;100.00;100550.16;5088768;28;20223;-75
2023/10/13 21:51:18;;;;;;;2.08;0.90;;;;;;;17.57;100.00;100560.66;5088685;28;20198;-75
2023/10/13 21:53:47;;;;;;;2.08;0.95;;;;;;;17.54;100.00;100572.88;5088668;28;20293;-75
2023/10/13 21:56:15;;;;;;;1.45;0.82;;;;;;;17.52;100.00;100569.38;5088924;28;20263;-75
2023/10/13 21:58:43;;;;;;;3.40;1.30;;;;;;;17.33;100.00;100553.78;5088445;28;20202;-74
2023/10/13 22:01:27;;;;;;;2.30;1.33;;;;;;;17.49;100.00;100567.66;5088644;28;20205;-74
2023/10/13 22:03:58;;;;;;;1.85;1.33;;;;;;;17.48;100.00;100578.19;5088360;28;20213;-75
2023/10/13 22:06:26;;;;;;;2.50;1.25;;;;;;;17.14;100.00;100544.25;5052968;28;20793;-75
2023/10/13 22:08:54;;;;;;;0.82;0.82;;;;;;;17.32;100.00;100583.47;5088648;28;20287;-75
2023/10/13 22:11:21;;;;;;;2.80;1.27;;;;;;;17.16;100.00;100571.31;5088283;28;20610;-75
2023/10/13 22:13:48;;;;;;;1.40;0.85;;;;;;;16.95;100.00;100545.19;5088428;28;20201;-75
2023/10/13 22:16:16;;;;;;;1.20;1.10;;;;;;;17.18;100.00;100580.06;5069582;28;20637;-75
2023/10/13 22:18:45;;;;;;;1.00;0.90;;;;;;;17.26;100.00;100583.53;5088187;28;20293;-75
2023/10/13 22:21:14;;;;;;;2.03;0.95;;;;;;;17.02;100.00;100557.38;5088352;28;20206;-75
2023/10/13 22:23:41;;;;;;;3.13;1.10;;;;;;;17.22;100.00;100586.16;5088041;28;20198;-75
2023/10/13 22:26:12;;;;;;;1.95;1.20;;;;;;;17.18;100.00;100569.56;5087961;28;20716;-75
2023/10/13 22:28:40;;;;;;;1.40;1.02;;;;;;;17.29;100.00;100580.88;5088081;28;20256;-75
2023/10/13 22:31:10;;;;;;;1.60;1.50;;;;;;;17.29;100.00;100577.38;5088040;28;20689;-75
2023/10/13 22:33:37;;;;;;;1.60;1.05;;;;;;;17.19;100.00;100571.28;5087803;28;20202;-73
2023/10/13 22:36:04;;;;;;;1.30;1.08;;;;;;;16.86;100.00;100508.56;5087942;28;20667;-76
2023/10/13 22:38:31;;;;;;;2.75;1.42;;;;;;;17.03;100.00;100539.91;5087840;28;20190;-76
2023/10/13 22:40:58;;;;;;;1.80;1.20;;;;;;;17.10;100.00;100554.75;5087671;28;20202;-74
2023/10/13 22:43:29;;;;;;;0.70;0.70;;;;;;;17.22;100.00;100570.44;5087775;28;20241;-75
2023/10/13 22:45:55;;;;;;;2.03;1.15;;;;;;;17.24;100.00;100574.78;5084163;28;20237;-74
2023/10/13 22:48:23;;;;;;;0.95;0.80;;;;;;;17.34;100.00;100565.97;5074571;28;20301;-74
2023/10/13 22:50:50;;;;;;;1.02;1.02;;;;;;;17.45;100.00;100572.91;5074149;28;20682;-75
2023/10/13 22:53:18;;;;;;;1.42;1.33;;;;;;;17.43;100.00;100572.06;5074306;28;20290;-76
2023/10/13 22:55:46;;;;;;;1.90;1.08;;;;;;;17.54;100.00;100572.88;5074153;28;20194;-75
2023/10/13 22:58:13;;;;;;;1.35;1.02;;;;;;;17.69;100.00;100571.06;5073967;28;20662;-75
2023/10/13 23:00:49;;;;;;;0.88;0.88;;;;;;;17.74;100.00;100571.91;5055456;28;20210;-76
2023/10/13 23:03:18;;;;;;;0.73;0.73;;;;;;;17.51;100.00;100523.09;5073956;28;20252;-74
2023/10/13 23:05:52;;;;;;;0.80;0.80;;;;;;;17.66;100.00;100533.50;5073842;28;20258;-75
2023/10/13 23:08:22;;;;;;;1.50;1.00;;;;;;;17.82;100.00;100571.88;5040527;28;20203;-75
2023/10/13 23:10:51;;;;;;;2.83;1.00;;;;;;;17.70;100.00;100564.06;5073641;28;20747;-74
2023/10/13 23:13:19;;;;;;;1.50;1.10;;;;;;;17.42;100.00;100531.00;5073911;28;20199;-74
2023/10/13 23:15:49;;;;;;;0.70;0.70;;;;;;;17.59;100.00;100565.88;5038384;28;20187;-74
2023/10/13 23:18:18;;;;;;;2.47;1.13;;;;;;;17.55;100.00;100561.53;5073774;28;20195;-74
2023/10/13 23:20:50;;;;;;;1.48;1.15;;;;;;;17.45;100.00;100530.97;5073789;28;20199;-73
2023/10/13 23:23:17;;;;;;;2.28;1.13;;;;;;;17.59;100.00;100564.13;5073493;28;20205;-74
2023/10/13 23:25:44;;;;;;;1.00;0.90;;;;;;;17.62;100.00;100553.63;5073568;28;20223;-74
2023/10/13 23:28:13;;;;;;;1.27;0.80;;;;;;;17.29;100.00;100501.38;5073327;28;20597;-74
2023/10/13 23:30:43;;;;;;;1.55;0.93;;;;;;;17.60;100.00;100546.66;5055220;28;20199;-75
2023/10/13 23:33:12;;;;;;;2.35;1.25;;;;;;;17.54;100.00;100551.91;5073320;28;20195;-74
2023/10/13 23:35:41;;;;;;;2.42;1.10;;;;;;;17.22;100.00;100512.78;5073641;28;20659;-74
2023/10/13 23:38:17;;;;;;;0.82;0.75;;;;;;;17.19;100.00;100508.38;5073137;28;20553;-75
2023/10/13 23:40:48;;;;;;;0.95;0.80;;;;;;;17.34;100.00;100539.78;5073463;28;20194;-74
2023/10/13 23:43:21;;;;;;;2.85;1.35;;;;;;;17.27;100.00;100531.94;5055419;28;20203;-75
2023/10/13 23:45:49;;;;;;;0.93;0.90;;;;;;;17.22;100.00;100534.59;5037771;28;20226;-75
2023/10/13 23:48:18;;;;;;;0.85;0.80;;;;;;;17.14;100.00;100527.66;5073257;28;20213;-74
2023/10/13 23:50:56;;;;;;;2.35;1.00;;;;;;;17.15;100.00;100532.03;5073233;28;20660;-75
2023/10/13 23:53:29;;;;;;;2.28;1.20;;;;;;;17.06;100.00;100532.91;5073087;28;20199;-75
2023/10/13 23:56:00;;;;;;;3.05;1.20;;;;;;;17.04;100.00;100528.56;5072940;28;20214;-75
2023/10/13 23:58:29;;;;;;;2.50;1.17;;;;;;;16.96;100.00;100532.97;5071778;28;20203;-75
